Time;durP1;ratioP1;P1;durP2;ratioP2;P2;SDS_P1;SDS_P2;PMS_P1;PMS_P2;Temp;Humidity;BMP_temperature;BMP_pressure;BME280_temperature;BME280_humidity;BME280_pressure;Samples;Min_cycle;Max_cycle;Signal;HPM_P1;HPM_P2
2023/06/27 00:01:41;;;;;;;5.55;2.50;;;;;;;-141.84;59.37;21360.78;4889921;29;20277;-66
2023/06/27 00:04:11;;;;;;;4.50;2.40;;;;;;;-141.84;60.00;21307.91;4886578;29;20249;-67
2023/06/27 00:06:41;;;;;;;4.47;2.70;;;;;;;-141.84;59.78;21303.84;4890300;29;20329;-66
2023/06/27 00:09:10;;;;;;;5.53;2.50;;;;;;;-141.84;60.13;21289.59;4906380;29;20737;-65
2023/06/27 00:11:39;;;;;;;2.70;2.50;;;;;;;-141.84;59.98;21295.72;4897188;29;20218;-67
2023/06/27 00:14:09;;;;;;;2.78;2.10;;;;;;;-141.84;60.37;21265.22;4888882;29;20230;-65
2023/06/27 00:16:39;;;;;;;2.35;2.15;;;;;;;-141.84;60.98;21236.75;4903506;29;20704;-66
2023/06/27 00:19:07;;;;;;;4.43;2.40;;;;;;;-141.84;61.32;21269.28;4908615;29;20229;-66
2023/06/27 00:21:37;;;;;;;5.10;2.50;;;;;;;-141.84;62.01;21236.75;4908278;29;20589;-66
2023/06/27 00:24:07;;;;;;;6.35;2.53;;;;;;;-141.84;61.92;21222.53;4908265;28;20230;-66
2023/06/27 00:26:35;;;;;;;3.72;2.45;;;;;;;-141.84;62.11;21240.81;4908608;28;20213;-66
2023/06/27 00:29:04;;;;;;;5.05;2.60;;;;;;;-141.84;61.93;21210.31;4908036;29;20660;-67
2023/06/27 00:31:32;;;;;;;3.90;2.35;;;;;;;-141.84;61.90;21171.69;4898925;28;20322;-65
2023/06/27 00:34:01;;;;;;;2.47;2.20;;;;;;;-141.84;62.06;21177.78;4888723;29;20257;-66
2023/06/27 00:36:30;;;;;;;4.32;2.40;;;;;;;-141.84;63.12;21143.22;4882241;29;20896;-65
2023/06/27 00:38:59;;;;;;;3.83;2.45;;;;;;;-141.84;64.27;21131.03;4889993;29;20222;-66
2023/06/27 00:41:28;;;;;;;4.53;2.40;;;;;;;-141.84;63.53;21143.22;4890264;29;20203;-66
2023/06/27 00:43:57;;;;;;;4.47;2.40;;;;;;;-141.84;64.33;21114.75;4889050;29;20271;-65
2023/06/27 00:46:35;;;;;;;4.45;2.33;;;;;;;-141.84;65.02;21106.63;4882084;29;20261;-63
2023/06/27 00:49:04;;;;;;;4.53;2.58;;;;;;;-141.84;65.41;21120.88;4889147;29;20238;-62
2023/06/27 00:51:33;;;;;;;2.55;2.20;;;;;;;-141.84;65.48;21090.38;4889218;29;20318;-61
2023/06/27 00:54:03;;;;;;;3.20;2.70;;;;;;;-141.84;65.59;21141.19;4888894;29;20317;-62
2023/06/27 00:56:32;;;;;;;3.70;2.90;;;;;;;-141.84;64.87;21137.13;4881908;29;20222;-62
2023/06/27 00:59:02;;;;;;;4.47;2.60;;;;;;;-141.84;64.97;21116.78;4889171;29;20305;-62
2023/06/27 01:01:31;;;;;;;3.53;2.50;;;;;;;-141.84;65.76;21078.16;4889076;29;20276;-66
2023/06/27 01:04:00;;;;;;;3.00;2.40;;;;;;;-141.84;65.94;21086.31;4888245;29;20256;-66
2023/06/27 01:06:39;;;;;;;5.20;2.80;;;;;;;-141.84;65.19;21114.75;4881379;29;20306;-65
2023/06/27 01:09:16;;;;;;;5.97;2.47;;;;;;;-141.84;65.93;21068.00;4890793;29;20297;-66
2023/06/27 01:11:50;;;;;;;2.63;2.22;;;;;;;-141.84;65.60;21057.84;4908087;29;20305;-66
2023/06/27 01:14:19;;;;;;;3.92;2.40;;;;;;;-141.84;65.53;21041.56;4900277;29;20221;-66
2023/06/27 01:16:51;;;;;;;5.00;2.30;;;;;;;-141.84;64.86;21055.81;4907164;29;20234;-66
2023/06/27 01:19:26;;;;;;;4.07;2.10;;;;;;;-141.84;64.44;21013.13;4907654;29;20656;-66
2023/06/27 01:22:02;;;;;;;3.95;2.53;;;;;;;-141.84;64.03;21031.41;4919991;28;20345;-66
2023/06/27 01:24:32;;;;;;;4.38;2.38;;;;;;;-141.84;64.20;21015.16;4918771;28;20331;-68
2023/06/27 01:27:01;;;;;;;5.05;2.10;;;;;;;-141.84;64.71;20988.72;4926830;28;20304;-65
2023/06/27 01:29:30;;;;;;;4.93;2.03;;;;;;;-141.84;65.53;20978.56;4926591;28;20237;-67
2023/06/27 01:32:05;;;;;;;3.40;2.60;;;;;;;-141.84;65.15;20990.75;4922860;28;20226;-66
2023/06/27 01:34:37;;;;;;;3.97;2.00;;;;;;;-141.84;65.40;20948.06;4901291;29;20704;-66
2023/06/27 01:37:10;;;;;;;4.30;2.15;;;;;;;-141.84;65.48;20972.47;4907436;29;20324;-66
2023/06/27 01:39:45;;;;;;;5.18;2.25;;;;;;;-141.84;65.43;20935.88;4907072;29;20268;-65
2023/06/27 01:42:17;;;;;;;5.55;2.15;;;;;;;-141.84;64.90;20952.13;4899440;29;20244;-67
2023/06/27 01:44:47;;;;;;;3.25;2.20;;;;;;;-141.84;65.67;20935.88;4907799;29;20234;-65
2023/06/27 01:47:17;;;;;;;5.07;2.28;;;;;;;-141.84;64.04;21031.41;4888453;29;20314;-67
2023/06/27 01:49:46;;;;;;;3.83;2.45;;;;;;;-141.84;65.01;20984.66;4887775;29;20242;-66
2023/06/27 01:52:15;;;;;;;3.80;2.35;;;;;;;-141.84;65.93;20907.41;4880743;29;20234;-66
2023/06/27 01:54:45;;;;;;;3.10;2.15;;;;;;;-141.84;66.14;20927.72;4888144;29;20249;-66
2023/06/27 01:57:14;;;;;;;4.93;2.50;;;;;;;-141.84;65.88;20937.91;4888551;29;20234;-66
2023/06/27 01:59:42;;;;;;;3.72;2.30;;;;;;;-141.84;66.10;20891.13;4888793;29;20221;-65
2023/06/27 02:02:11;;;;;;;3.92;2.35;;;;;;;-141.84;65.88;20937.91;4880805;29;20238;-63
2023/06/27 02:04:40;;;;;;;4.97;2.25;;;;;;;-141.84;66.00;20887.06;4887601;29;20610;-65
2023/06/27 02:07:08;;;;;;;2.97;2.20;;;;;;;-141.84;67.06;20866.75;4888242;29;20742;-66
2023/06/27 02:09:36;;;;;;;3.58;2.28;;;;;;;-141.84;66.89;20919.59;4905528;29;20801;-65
2023/06/27 02:12:09;;;;;;;2.40;2.03;;;;;;;-141.84;67.42;20887.06;4906661;29;20261;-67
2023/06/27 02:14:38;;;;;;;5.93;2.58;;;;;;;-141.84;66.29;20919.59;4900093;29;20298;-66
2023/06/27 02:17:06;;;;;;;3.58;2.30;;;;;;;-141.84;67.08;20846.41;4905085;29;20238;-66
2023/06/27 02:19:35;;;;;;;2.95;2.42;;;;;;;-141.84;67.26;20874.88;4905736;29;20618;-66
2023/06/27 02:22:04;;;;;;;2.83;2.42;;;;;;;-141.84;67.78;20809.81;4915724;29;20323;-67
2023/06/27 02:24:32;;;;;;;3.03;2.42;;;;;;;-141.84;67.97;20836.25;4916516;28;20248;-65
2023/06/27 02:27:01;;;;;;;3.15;2.30;;;;;;;-141.84;67.01;20809.81;4924796;28;20293;-64
2023/06/27 02:29:31;;;;;;;3.83;2.22;;;;;;;-141.84;67.19;20842.34;4912138;28;20701;-67
2023/06/27 02:31:59;;;;;;;3.55;2.35;;;;;;;-141.84;67.75;20799.66;4904785;28;20788;-66
2023/06/27 02:34:28;;;;;;;4.97;2.42;;;;;;;-141.84;67.96;20795.59;4897553;29;20316;-67
2023/06/27 02:36:57;;;;;;;4.35;2.60;;;;;;;-141.84;68.62;20775.25;4906196;29;20256;-66
2023/06/27 02:39:25;;;;;;;4.85;2.70;;;;;;;-141.84;68.49;20775.25;4905550;29;20237;-66
2023/06/27 02:41:54;;;;;;;5.05;2.40;;;;;;;-141.84;68.84;20750.88;4906008;29;20674;-66
2023/06/27 02:44:22;;;;;;;5.10;2.83;;;;;;;-141.84;69.27;20702.09;4898442;28;20316;-67
2023/06/27 02:46:52;;;;;;;4.10;2.42;;;;;;;-141.84;67.49;20777.28;4905299;29;20293;-66
2023/06/27 02:49:21;;;;;;;3.30;2.42;;;;;;;-141.84;68.06;20748.84;4905276;29;20234;-66
2023/06/27 02:51:50;;;;;;;6.93;2.58;;;;;;;-141.84;67.71;20783.41;4905619;29;20317;-65
2023/06/27 02:54:18;;;;;;;3.55;2.38;;;;;;;-141.84;67.34;20801.69;4900024;29;20698;-67
2023/06/27 02:56:47;;;;;;;3.33;2.17;;;;;;;-141.84;66.72;20803.72;4909736;29;20220;-66
2023/06/27 02:59:15;;;;;;;4.47;2.80;;;;;;;-141.84;67.73;20752.91;4909122;29;20312;-66
2023/06/27 03:01:44;;;;;;;3.67;2.53;;;;;;;-141.84;67.22;20728.50;4908717;29;20481;-67
2023/06/27 03:04:19;;;;;;;4.13;2.58;;;;;;;-141.84;67.05;20722.41;4900809;29;20229;-66
2023/06/27 03:06:48;;;;;;;3.42;2.17;;;;;;;-141.84;67.03;20746.81;4908909;29;20601;-66
2023/06/27 03:09:17;;;;;;;4.85;2.50;;;;;;;-141.84;66.64;20752.91;4925953;28;20237;-65
2023/06/27 03:11:46;;;;;;;2.70;2.00;;;;;;;-141.84;66.44;20752.91;4928235;28;20316;-65
2023/06/27 03:14:17;;;;;;;3.58;2.10;;;;;;;-141.84;66.81;20700.03;4897917;29;20764;-66
2023/06/27 03:16:45;;;;;;;5.38;2.35;;;;;;;-141.84;67.17;20643.13;4868458;29;1093576;-67
2023/06/27 03:19:15;;;;;;;3.42;2.28;;;;;;;-141.84;66.05;20781.38;4909616;29;20333;-66
2023/06/27 03:21:54;;;;;;;3.15;2.10;;;;;;;-141.84;66.04;20734.59;4909878;29;20233;-66
2023/06/27 03:24:23;;;;;;;3.78;2.40;;;;;;;-141.84;64.73;20801.69;4900509;28;20260;-65
2023/06/27 03:26:51;;;;;;;3.72;2.50;;;;;;;-141.84;64.46;20842.34;4891137;29;20306;-66
2023/06/27 03:29:20;;;;;;;5.75;2.63;;;;;;;-141.84;65.44;20809.81;4891767;29;20222;-66
2023/06/27 03:31:48;;;;;;;2.95;2.13;;;;;;;-141.84;64.53;20854.53;4890367;29;20231;-66
2023/06/27 03:34:18;;;;;;;5.05;2.20;;;;;;;-141.84;64.00;20850.47;4882947;29;20321;-65
2023/06/27 03:36:47;;;;;;;5.80;2.40;;;;;;;-141.84;63.98;20897.25;4890449;29;20270;-66
2023/06/27 03:39:15;;;;;;;5.72;2.50;;;;;;;-141.84;62.87;20858.59;4891049;29;20298;-66
2023/06/27 03:41:44;;;;;;;5.15;2.40;;;;;;;-141.84;63.12;20878.94;4890918;29;20214;-65
2023/06/27 03:44:12;;;;;;;3.33;2.00;;;;;;;-141.84;61.96;20899.28;4883107;29;20234;-65
2023/06/27 03:46:41;;;;;;;5.97;2.30;;;;;;;-141.84;62.55;20876.91;4890388;29;20235;-67
2023/06/27 03:49:09;;;;;;;2.60;2.00;;;;;;;-141.84;63.12;20907.41;4890455;29;20810;-66
2023/06/27 03:51:41;;;;;;;6.32;2.30;;;;;;;-141.84;62.56;20903.34;4889728;29;20722;-66
2023/06/27 03:54:10;;;;;;;3.55;2.10;;;;;;;-141.84;61.77;20907.41;4886996;29;20238;-65
2023/06/27 03:56:38;;;;;;;4.97;1.83;;;;;;;-141.84;61.48;20917.56;4890112;29;20219;-65
2023/06/27 03:59:07;;;;;;;6.28;2.10;;;;;;;-141.84;61.95;20939.94;4898069;29;20270;-65
2023/06/27 04:01:35;;;;;;;4.93;1.92;;;;;;;-141.84;60.24;20958.22;4889948;29;20321;-67
2023/06/27 04:04:04;;;;;;;3.28;1.77;;;;;;;-141.84;60.73;20941.97;4889258;29;20265;-66
2023/06/27 04:06:33;;;;;;;4.78;2.10;;;;;;;-141.84;60.51;20946.03;4882904;29;20773;-67
2023/06/27 04:09:03;;;;;;;6.78;2.25;;;;;;;-141.84;60.63;20946.03;4905531;29;20209;-67
2023/06/27 04:11:32;;;;;;;5.90;2.35;;;;;;;-141.84;61.15;20931.78;4909178;29;20300;-65
2023/06/27 04:14:00;;;;;;;6.22;2.00;;;;;;;-141.84;60.40;20982.63;4907238;29;20268;-66
2023/06/27 04:16:29;;;;;;;3.03;1.88;;;;;;;-141.84;61.41;20964.31;4895107;29;20262;-66
2023/06/27 04:18:58;;;;;;;6.72;2.33;;;;;;;-141.84;60.94;21007.00;4908711;29;20241;-68
2023/06/27 04:21:26;;;;;;;4.53;1.90;;;;;;;-141.84;59.58;21029.38;4908116;29;20809;-68
2023/06/27 04:23:56;;;;;;;4.03;2.10;;;;;;;-141.84;59.96;21061.91;4908855;29;20317;-67
2023/06/27 04:26:26;;;;;;;4.18;2.15;;;;;;;-141.84;60.34;21070.03;4901226;28;20320;-61
2023/06/27 04:28:55;;;;;;;4.45;2.20;;;;;;;-141.84;60.24;21031.41;4908313;29;20395;-62
2023/06/27 04:31:25;;;;;;;3.85;2.30;;;;;;;-141.84;61.22;21017.19;4908306;29;20321;-61
2023/06/27 04:33:55;;;;;;;3.58;2.00;;;;;;;-141.84;62.16;21000.91;4893962;29;20322;-62
2023/06/27 04:36:25;;;;;;;3.45;2.03;;;;;;;-141.84;61.58;21031.41;4882396;29;20290;-63
2023/06/27 04:38:54;;;;;;;5.13;2.40;;;;;;;-141.84;61.80;20996.84;4889776;29;20298;-62
2023/06/27 04:41:22;;;;;;;3.53;2.22;;;;;;;-141.84;61.52;21013.13;4890101;29;20214;-61
2023/06/27 04:43:52;;;;;;;6.18;2.35;;;;;;;-141.84;61.47;21007.00;4889218;29;20238;-62
2023/06/27 04:46:21;;;;;;;8.25;3.05;;;;;;;-141.84;60.23;21070.03;4882077;29;20327;-63
2023/06/27 04:48:49;;;;;;;7.70;2.47;;;;;;;-141.84;60.50;21065.97;4889798;29;20677;-61
2023/06/27 04:51:18;;;;;;;6.20;2.13;;;;;;;-141.84;59.06;21171.69;4889006;29;20774;-62
2023/06/27 04:53:46;;;;;;;8.18;2.25;;;;;;;-141.84;56.30;21492.94;4889830;29;20360;-61
2023/06/27 04:56:15;;;;;;;3.78;2.00;;;;;;;-141.84;48.05;22035.84;4881642;29;20601;-62
2023/06/27 04:58:44;;;;;;;4.35;1.75;;;;;;;-141.84;45.92;22355.13;4889025;29;20333;-62
2023/06/27 05:01:13;;;;;;;6.30;1.83;;;21.40;99.90;;;-141.84;43.14;22733.41;4888587;29;20333;-65
2023/06/27 05:03:42;;;;;;;3.85;2.10;;;22.50;99.90;;;-141.84;40.38;23077.13;4888493;29;20235;-61
2023/06/27 05:06:10;;;;;;;6.90;2.20;;;;;;;-141.84;40.03;23272.41;4882244;29;20245;-64
2023/06/27 05:08:40;;;;;;;5.82;2.20;;;;;;;-141.84;38.68;23404.63;4889506;29;20210;-62
2023/06/27 05:11:08;;;;;;;3.50;2.00;;;;;;;-141.84;37.58;23726.06;4907182;29;20270;-62
2023/06/27 05:13:36;;;;;;;3.67;1.80;;;;;;;-141.84;37.14;23935.59;4893844;29;20245;-61
2023/06/27 05:16:05;;;;;;;6.07;2.13;;;;;;;-141.84;35.43;24228.59;4897224;29;20785;-63
2023/06/27 05:18:35;;;;;;;3.60;1.90;;;;;;;-141.84;36.07;24171.63;4886185;29;20230;-63
2023/06/27 05:21:04;;;;;;;4.15;1.50;;;;;;;-141.84;34.90;24301.84;4894079;28;20289;-65
2023/06/27 05:23:32;;;;;;;4.10;1.60;;;;;;;-141.84;35.36;24076.00;4905582;29;20300;-64
2023/06/27 05:26:01;;;;;;;4.38;1.67;;;;;;;-141.84;35.25;23919.34;4907300;28;20805;-66
2023/06/27 05:28:29;;;;;;;2.92;1.88;;;;;;;-141.84;34.83;24049.53;4899471;28;20695;-65
2023/06/27 05:30:58;;;;;;;3.20;1.90;;;;;;;-141.84;35.31;23931.53;4907252;28;20679;-66
2023/06/27 05:33:26;;;;;;;4.85;1.77;;;;;;;-141.84;36.59;23650.78;4896008;29;20298;-65
2023/06/27 05:35:56;;;;;;;5.32;1.70;;;;;;;-141.84;37.21;23443.28;4888683;29;20203;-65
2023/06/27 05:38:24;;;;;;;2.22;1.60;;;25.00;99.90;;;-141.84;38.26;23160.53;4881170;29;20306;-65
2023/06/27 05:40:53;;;;;;;4.63;1.85;;;;;;;-141.84;39.01;22955.09;4888138;29;20243;-63
2023/06/27 05:43:22;;;;;;;4.72;1.95;;;;;;;-141.84;39.50;22835.09;4887795;29;20325;-65
2023/06/27 05:45:51;;;;;;;4.18;1.80;;;;;;;-141.84;41.48;22582.91;4887820;29;20266;-64
2023/06/27 05:48:19;;;;;;;4.90;1.77;;;;;;;-141.84;43.06;22322.56;4880136;29;20683;-65
2023/06/27 05:50:48;;;;;;;6.72;1.90;;;;;;;-141.84;44.74;22092.78;4888144;29;20683;-64
2023/06/27 05:53:17;;;;;;;4.32;2.08;;;24.80;99.90;;;-141.84;46.62;21991.09;4888235;29;20699;-64
2023/06/27 05:55:47;;;;;;;4.68;1.77;;;;;;;-141.84;46.88;21869.09;4888068;29;20254;-64
2023/06/27 05:58:15;;;;;;;4.43;1.77;;;;;;;-141.84;46.57;21856.91;4880357;29;20230;-66
2023/06/27 06:00:44;;;;;;;6.32;1.98;;;;;;;-141.84;47.36;21816.22;4887947;29;20325;-67
2023/06/27 06:03:13;;;;;;;6.30;2.00;;;;;;;-141.84;47.96;21741.00;4887026;29;20268;-64
2023/06/27 06:05:42;;;;;;;5.53;2.20;;;;;;;-141.84;48.13;21663.72;4888336;29;20226;-65
2023/06/27 06:08:10;;;;;;;6.50;2.20;;;;;;;-141.84;48.83;21602.72;4888972;29;20597;-65
2023/06/27 06:10:40;;;;;;;8.25;2.08;;;;;;;-141.84;47.98;21698.28;4905496;28;20234;-64
2023/06/27 06:13:09;;;;;;;6.55;2.05;;;;;;;-141.84;48.47;21680.00;4904201;29;20229;-64
2023/06/27 06:15:38;;;;;;;6.63;1.98;;;;;;;-141.84;48.10;21730.81;4893957;29;20596;-65
2023/06/27 06:18:06;;;;;;;6.25;2.58;;;;;;;-141.84;47.88;21777.59;4906525;29;20281;-65
2023/06/27 06:20:35;;;;;;;2.70;1.80;;;;;;;-141.84;46.70;21775.56;4902776;29;20289;-63
2023/06/27 06:23:04;;;;;;;5.50;2.40;;;;;;;-141.84;47.03;21749.13;4905831;28;20238;-64
2023/06/27 06:25:32;;;;;;;5.32;1.80;;;;;;;-141.84;46.69;21716.59;4906369;29;20341;-63
2023/06/27 06:28:02;;;;;;;5.38;1.80;;;;;;;-141.84;46.98;21751.16;4906423;29;20317;-64
2023/06/27 06:30:30;;;;;;;2.67;1.52;;;;;;;-141.84;46.03;21690.16;4899518;29;20436;-65
2023/06/27 06:32:59;;;;;;;3.20;1.70;;;;;;;-141.84;46.31;21708.47;4898585;29;20306;-65
2023/06/27 06:35:27;;;;;;;6.40;1.73;;;;;;;-141.84;45.43;21728.78;4886792;29;20226;-63
2023/06/27 06:37:56;;;;;;;3.50;1.67;;;;;;;-141.84;46.05;21732.84;4886526;29;20749;-64
2023/06/27 06:40:29;;;;;;;3.42;1.90;;;;;;;-141.84;45.85;21791.81;4878768;29;20329;-64
2023/06/27 06:42:57;;;;;;;2.63;1.50;;;;;;;-141.84;44.52;21769.47;4887499;29;20335;-63
2023/06/27 06:45:27;;;;;;;4.07;1.52;;;;;;;-141.84;45.17;21745.06;4892724;29;20352;-62
2023/06/27 06:47:55;;;;;;;3.08;1.70;;;;;;;-141.84;44.16;21789.78;4895896;29;20596;-64
2023/06/27 06:50:24;;;;;;;3.75;1.63;;;;;;;-141.84;45.32;21767.44;4880864;29;20214;-64
2023/06/27 06:52:52;;;;;;;5.00;1.63;;;;;;;-141.84;45.22;21753.19;4887288;29;20258;-64
2023/06/27 06:55:22;;;;;;;2.92;1.58;;;;;;;-141.84;45.54;21783.69;4887111;29;20322;-64
2023/06/27 06:57:51;;;;;;;3.30;1.52;;;;;;;-141.84;43.91;21848.75;4886999;29;20317;-63
2023/06/27 07:00:21;;;;;;;2.97;1.50;;;;;;;-141.84;44.67;21846.72;4879929;29;20234;-65
2023/06/27 07:02:50;;;;;;;3.22;1.63;;;;;;;-141.84;44.01;21818.25;4887838;29;20694;-64
2023/06/27 07:05:19;;;;;;;2.50;1.42;;;;;;;-141.84;44.81;21749.13;4887418;29;20230;-64
2023/06/27 07:07:50;;;;;;;2.92;1.80;;;;;;;-141.84;45.57;21684.06;4886780;29;20797;-62
2023/06/27 07:10:18;;;;;;;3.28;1.65;;;;;;;-141.84;45.02;21710.50;4891293;29;20364;-62
2023/06/27 07:12:47;;;;;;;2.70;1.40;;;;;;;-141.84;44.76;21816.22;4907260;29;20317;-61
2023/06/27 07:15:17;;;;;;;3.95;1.30;;;;;;;-141.84;44.08;21915.88;4901497;28;20230;-63
2023/06/27 07:17:45;;;;;;;3.08;1.73;;;;;;;-141.84;43.18;21915.88;4904903;28;20647;-63
2023/06/27 07:20:16;;;;;;;3.45;1.10;;;;;;;-141.84;42.71;21779.63;4897184;28;20240;-61
2023/06/27 07:22:45;;;;;;;2.17;1.63;;;;;;;-141.84;44.47;21708.47;4887156;29;20587;-61
2023/06/27 07:25:13;;;;;;;4.82;1.80;;;;;;;-141.84;44.77;21716.59;4897154;28;20789;-62
2023/06/27 07:27:43;;;;;;;4.03;1.50;;;;;;;-141.84;44.72;21777.59;4892623;28;20239;-62
2023/06/27 07:30:13;;;;;;;5.80;1.40;;;;;;;-141.84;43.37;21814.19;4893637;28;20281;-65
2023/06/27 07:32:42;;;;;;;2.47;1.27;;;;;;;-141.84;44.40;21846.72;4891626;28;20301;-62
2023/06/27 07:35:10;;;;;;;3.70;1.60;;;;;;;-141.84;42.71;21895.53;4895096;28;20249;-61
2023/06/27 07:37:40;;;;;;;2.80;1.50;;;;;;;-141.84;43.13;21887.41;4886766;29;20227;-62
2023/06/27 07:40:10;;;;;;;2.40;1.23;;;;;;;-141.84;44.34;21785.72;4886781;29;20239;-62
2023/06/27 07:42:38;;;;;;;3.13;1.70;;;;;;;-141.84;45.16;21814.19;4875207;29;20310;-62
2023/06/27 07:47:51;;;;;;;3.45;1.35;;;;;;;-141.84;44.07;21840.63;4889757;29;20234;-62
2023/06/27 07:50:20;;;;;;;2.00;1.20;;;;;;;-141.84;43.78;21867.06;4891757;28;20210;-63
2023/06/27 07:52:50;;;;;;;3.72;1.55;;;;;;;-141.84;43.76;21867.06;4908716;28;20238;-62
2023/06/27 07:55:18;;;;;;;3.63;1.13;;;;;;;-141.84;43.36;21928.06;4908881;28;20230;-60
2023/06/27 07:57:48;;;;;;;2.42;1.20;;;;;;;-141.84;42.40;21974.84;4908684;28;20242;-62
2023/06/27 08:00:17;;;;;;;3.50;1.27;;;;;;;-141.84;41.94;22066.34;4894762;28;20254;-61
2023/06/27 08:02:46;;;;;;;3.10;1.33;;;;;;;-141.84;41.33;22037.88;4890425;29;20215;-64
2023/06/27 08:05:14;;;;;;;3.90;1.30;;;;;;;-141.84;41.48;21978.91;4908909;29;20287;-63
2023/06/27 08:07:43;;;;;;;5.18;1.50;;;;;;;-141.84;42.53;21964.66;4897923;29;20772;-62
2023/06/27 08:10:13;;;;;;;3.35;1.17;;;;;;;-141.84;41.96;21999.25;4889460;29;20336;-65
2023/06/27 08:12:41;;;;;;;2.92;1.25;;;;;;;-141.84;41.19;22005.34;4889776;29;20289;-63
2023/06/27 08:15:10;;;;;;;2.15;1.30;;;;;;;-141.84;41.60;21887.41;4891948;29;20726;-63
2023/06/27 08:17:39;;;;;;;2.22;1.00;;;;;;;-141.84;42.96;21818.25;4908751;28;20206;-62
2023/06/27 08:20:08;;;;;;;3.65;1.30;;;;;;;-141.84;44.01;21751.16;4907789;29;20269;-62
2023/06/27 08:22:37;;;;;;;2.65;1.20;;;;;;;-141.84;44.40;21696.25;4863380;29;20238;-63
2023/06/27 08:25:07;;;;;;;2.35;1.00;;;;;;;-141.84;43.34;21755.22;4875953;29;20239;-61
2023/06/27 08:27:37;;;;;;;1.77;1.17;;;;;;;-141.84;41.87;21824.34;4870842;29;20243;-61
2023/06/27 08:30:07;;;;;;;4.68;1.45;;;;;;;-141.84;41.55;21907.72;4870278;29;20294;-61
2023/06/27 08:32:35;;;;;;;3.30;1.20;;;;;;;-141.84;42.23;21978.91;4871623;29;20736;-61
2023/06/27 08:35:06;;;;;;;4.43;1.58;;;;;;;-141.84;42.16;21942.31;4877919;29;20426;-60
2023/06/27 08:37:35;;;;;;;4.40;1.25;;;;;;;-141.84;42.39;21846.72;4897972;29;20317;-59
2023/06/27 08:40:04;;;;;;;2.10;1.05;;;;;;;-141.84;42.56;21956.53;4900540;29;20294;-60
2023/06/27 08:42:32;;;;;;;2.20;1.45;;;;;;;-141.84;41.21;22056.19;4882042;29;20306;-61
2023/06/27 08:45:03;;;;;;;3.00;1.17;;;;;;;-141.84;41.72;22078.53;4888593;29;20593;-61
2023/06/27 08:47:32;;;;;;;3.03;1.20;;;;;;;-141.84;40.75;22145.66;4889859;29;20722;-62
2023/06/27 08:50:04;;;;;;;2.17;1.00;;;;;;;-141.84;41.34;22129.38;4888699;29;20266;-61
2023/06/27 08:52:37;;;;;;;2.58;1.13;;;;;;;-141.84;39.87;22064.31;4880864;29;20329;-61
2023/06/27 08:55:09;;;;;;;1.92;1.20;;;;;;;-141.84;41.34;22037.88;4889211;29;20333;-63
2023/06/27 08:57:38;;;;;;;2.13;1.40;;;;;;;-141.84;41.80;22098.88;4889043;29;20266;-61
2023/06/27 09:00:12;;;;;;;1.90;1.27;;;;;;;-141.84;40.09;22243.25;4888984;29;20440;-62
2023/06/27 09:02:44;;;;;;;2.25;1.50;;;;;;;-141.84;40.19;22283.94;4889109;29;20246;-61
2023/06/27 09:05:13;;;;;;;3.72;1.40;;;;;;;-141.84;39.97;22198.53;4888545;29;20330;-62
2023/06/27 09:07:43;;;;;;;2.42;1.20;;;;;;;-141.84;41.67;22082.63;4893409;29;20297;-62
2023/06/27 09:10:12;;;;;;;3.47;1.50;;;;;;;-141.84;47.67;21732.84;4900151;29;20321;-63
2023/06/27 09:12:42;;;;;;;2.40;1.80;;;;;;;-141.84;54.08;21405.50;4907500;29;20241;-63
2023/06/27 09:15:12;;;;;;;2.15;1.63;;;;;;;-141.84;60.89;21295.72;4898857;29;20259;-65
2023/06/27 09:17:41;;;;;;;3.63;1.90;;;;;;;-141.84;65.25;21236.75;4899332;29;20246;-63
2023/06/27 09:20:11;;;;;;;3.42;1.83;;;;;;;-141.84;66.25;21151.34;4886286;29;20509;-63
2023/06/27 09:22:40;;;;;;;3.83;2.03;;;;;;;-141.84;61.48;21216.41;4888610;29;20269;-62
2023/06/27 09:25:12;;;;;;;4.43;2.08;;;;;;;-141.84;65.02;21285.53;4874745;29;20250;-61
2023/06/27 09:27:41;;;;;;;3.28;1.42;;;;;;;-141.84;61.85;21332.31;4869689;29;20239;-62
2023/06/27 09:30:12;;;;;;;4.97;1.80;;;;;;;-141.84;61.30;21391.28;4866649;29;20246;-62
2023/06/27 09:32:56;;;;;;;3.55;1.70;;;;;;;-141.84;54.80;21497.00;4874753;29;20241;-63
2023/06/27 09:35:27;;;;;;;5.55;1.98;;;;;;;-141.84;56.13;21529.53;4887228;29;20238;-61
2023/06/27 09:38:06;;;;;;;2.42;1.50;;;;;;;-141.84;57.47;21541.72;4888771;29;20321;-61
2023/06/27 09:40:38;;;;;;;2.92;1.60;;;;;;;-141.84;54.62;21643.38;4888254;29;20270;-60
2023/06/27 09:43:07;;;;;;;1.88;1.50;;;;;;;-141.84;57.13;21619.00;4888268;29;20244;-61
2023/06/27 09:45:37;;;;;;;5.10;1.65;;;;;;;-141.84;56.87;21555.97;4887761;29;20317;-62
2023/06/27 09:48:11;;;;;;;2.55;1.70;;;;;;;-141.84;54.34;21619.00;4887862;29;20710;-61
2023/06/27 09:50:40;;;;;;;3.45;1.60;;;;;;;-141.84;53.25;21580.34;4888559;29;20211;-61
2023/06/27 09:53:09;;;;;;;2.58;1.70;;;;;;;-141.84;53.11;21614.94;4888017;29;20246;-64
2023/06/27 09:55:38;;;;;;;2.83;1.42;;;;;;;-141.84;52.60;21614.94;4887873;29;20714;-63
2023/06/27 09:58:07;;;;;;;3.38;1.55;;;;;;;-141.84;52.11;21608.81;4887527;29;20662;-63
2023/06/27 10:00:38;;;;;;;4.57;1.50;;;;;;;-141.84;49.81;21633.22;4887426;29;20239;-63
2023/06/27 10:03:10;;;;;;;3.33;1.60;;;;;;;-141.84;49.57;21680.00;4887968;29;20245;-62
2023/06/27 10:05:39;;;;;;;2.58;1.50;;;;;;;-141.84;47.87;21745.06;4888271;29;20203;-64
2023/06/27 10:08:22;;;;;;;3.28;1.70;;;;;;;-141.84;45.93;21812.16;4898824;29;20240;-62
2023/06/27 10:10:51;;;;;;;3.38;1.90;;;;;;;-141.84;47.12;21820.28;4906676;29;20234;-64
2023/06/27 10:13:19;;;;;;;3.40;1.60;;;;;;;-141.84;48.05;21891.47;4906192;29;20317;-64
2023/06/27 10:15:50;;;;;;;2.15;1.45;;;;;;;-141.84;45.96;22054.13;4906231;29;20328;-63
2023/06/27 10:18:18;;;;;;;3.05;1.40;;;;;;;-141.84;46.10;22080.56;4898690;29;20781;-62
2023/06/27 10:20:47;;;;;;;5.68;1.90;;;;;;;-141.84;45.95;22074.47;4906158;28;20670;-63
2023/06/27 10:23:16;;;;;;;2.47;1.50;;;;;;;-141.84;46.91;21995.16;4906438;29;20321;-62
2023/06/27 10:25:46;;;;;;;2.47;1.40;;;;;;;-141.84;48.57;21804.03;4905333;28;20234;-62
2023/06/27 10:28:15;;;;;;;2.40;1.67;;;;;;;-141.84;48.91;21799.97;4898639;28;20268;-64
2023/06/27 10:30:49;;;;;;;2.78;1.20;;;;;;;-141.84;48.03;21775.56;4897697;29;20241;-63
2023/06/27 10:33:27;;;;;;;2.67;1.50;;;;;;;-141.84;48.08;21751.16;4886748;29;20305;-63
2023/06/27 10:36:01;;;;;;;1.50;1.40;;;;;;;-141.84;47.98;21773.53;4887071;29;20249;-63
2023/06/27 10:38:36;;;;;;;2.10;1.50;;;;;;;-141.84;45.50;21812.16;4879120;29;20228;-63
2023/06/27 10:41:23;;;;;;;2.97;1.40;;;;;;;-141.84;45.62;21846.72;4903380;29;20285;-63
2023/06/27 10:43:53;;;;;;;3.20;1.50;;;;;;;-141.84;45.05;21854.88;4905290;29;20237;-62
2023/06/27 10:46:26;;;;;;;3.28;1.58;;;;;;;-141.84;45.25;21895.53;4897143;28;20285;-63
2023/06/27 10:48:59;;;;;;;2.70;1.30;;;;;;;-141.84;48.49;21814.19;4906156;29;20248;-65
2023/06/27 10:51:35;;;;;;;3.63;1.77;;;;;;;-141.84;51.26;21708.47;4906418;29;20593;-63
2023/06/27 10:54:15;;;;;;;3.13;1.60;;;;;;;-141.84;52.16;21608.81;4905823;29;20321;-63
2023/06/27 10:56:45;;;;;;;2.22;1.30;;;;;;;-141.84;49.76;21566.13;4906288;29;20209;-63
2023/06/27 10:59:17;;;;;;;2.17;1.65;;;;;;;-141.84;50.04;21612.88;4905880;29;20281;-63
2023/06/27 11:01:52;;;;;;;1.85;1.15;;;;;;;-141.84;50.63;21635.25;4905695;29;20248;-65
2023/06/27 11:04:24;;;;;;;2.28;1.13;;;;;;;-141.84;50.73;21560.03;4880777;29;20638;-63
2023/06/27 11:07:00;;;;;;;1.60;1.27;;;;;;;-141.84;52.83;21578.31;4886830;29;20698;-63
2023/06/27 11:09:29;;;;;;;1.63;1.10;;;;;;;-141.84;49.26;21619.00;4871101;29;20234;-63
2023/06/27 11:12:11;;;;;;;1.85;1.35;;;;;;;-141.84;48.46;21631.19;4888668;29;20203;-63
2023/06/27 11:14:41;;;;;;;1.52;1.38;;;;;;;-141.84;47.64;21690.16;4918951;28;20670;-64
2023/06/27 11:17:12;;;;;;;4.00;1.33;;;;;;;-141.84;45.77;21708.47;4877775;28;20245;-63
2023/06/27 11:19:42;;;;;;;1.85;1.30;;;;;;;-141.84;46.03;21724.72;4871841;29;20238;-63
2023/06/27 11:22:12;;;;;;;4.05;1.30;;;;;;;-141.84;44.83;21753.19;4865366;29;20238;-63
2023/06/27 11:24:41;;;;;;;2.95;1.17;;;;;;;-141.84;45.14;21802.00;4888550;28;20268;-63
2023/06/27 11:27:10;;;;;;;2.92;1.35;;;;;;;-141.84;44.77;21773.53;4905994;28;20577;-64
2023/06/27 11:29:38;;;;;;;1.48;1.30;;;;;;;-141.84;45.15;21818.25;4890209;29;20325;-63
2023/06/27 11:32:07;;;;;;;1.83;1.30;;;;;;;-141.84;43.30;21842.66;4888710;29;20325;-63